Time;durP1;ratioP1;P1;durP2;ratioP2;P2;SDS_P1;SDS_P2;PMS_P1;PMS_P2;Temp;Humidity;BMP_temperature;BMP_pressure;BME280_temperature;BME280_humidity;BME280_pressure;Samples;Min_cycle;Max_cycle;Signal;HPM_P1;HPM_P2
2022/05/01 00:00:35;;;;;;;;;;;;;;;7.25;100.00;101763.78;5072328;28;20284;-77
2022/05/01 00:03:08;;;;;;;;;;;;;;;7.26;100.00;101759.19;5091423;28;19928;-76
2022/05/01 00:05:41;;;;;;;;;;;;;;;7.25;100.00;101758.38;5071490;28;19928;-76
2022/05/01 00:08:15;;;;;;;;;;;;;;;7.23;100.00;101759.66;5105459;27;19938;-75
2022/05/01 00:10:48;;;;;;;;;;;;;;;7.24;100.00;101751.31;5091487;28;19928;-76
2022/05/01 00:13:21;;;;;;;;;;;;;;;7.26;100.00;101751.88;5070792;28;19935;-76
2022/05/01 00:15:55;;;;;;;;;;;;;;;7.27;100.00;101748.13;5086006;28;19928;-76
2022/05/01 00:18:23;;;;;;;;;;;;;;;7.29;100.00;101746.03;5070965;28;20423;-76
2022/05/01 00:20:56;;;;;;;;;;;;;;;7.23;100.00;101748.81;5085489;28;19928;-77
2022/05/01 00:23:30;;;;;;;;;;;;;;;7.23;100.00;101746.13;5097207;28;19936;-77
2022/05/01 00:25:59;;;;;;;;;;;;;;;7.17;100.00;101742.47;5089887;28;19935;-76
2022/05/01 00:28:32;;;;;;;;;;;;;;;7.13;100.00;101744.78;5077279;28;19928;-77
2022/05/01 00:31:05;;;;;;;;;;;;;;;7.17;100.00;101742.47;5093355;28;19928;-77
2022/05/01 00:36:29;;;;;;;;;;;;;;;7.03;100.00;101739.13;5071449;28;20331;-75
2022/05/01 00:39:00;;;;;;;;;;;;;;;6.98;100.00;101738.97;5070527;28;19927;-76
2022/05/01 00:41:28;;;;;;;;;;;;;;;6.98;100.00;101744.38;5085303;28;20073;-77
2022/05/01 00:44:04;;;;;;;;;;;;;;;6.91;100.00;101744.47;5108317;27;19935;-76
2022/05/01 00:46:38;;;;;;;;;;;;;;;6.88;100.00;101741.41;5083357;28;19927;-76
2022/05/01 00:49:09;;;;;;;;;;;;;;;6.85;100.00;101742.69;5080885;28;20406;-76
2022/05/01 00:51:44;;;;;;;;;;;;;;;6.87;100.00;101745.97;5077997;28;20660;-75
2022/05/01 00:54:19;;;;;;;;;;;;;;;6.86;100.00;101747.03;5067075;28;19928;-76
2022/05/01 00:56:53;;;;;;;;;;;;;;;6.86;100.00;101744.31;5071345;28;19928;-76
2022/05/01 00:59:22;;;;;;;;;;;;;;;6.84;100.00;101743.75;5071490;28;19928;-77
2022/05/01 01:01:52;;;;;;;;;;;;;;;6.87;100.00;101745.16;5096678;28;19934;-76
2022/05/01 01:04:25;;;;;;;;;;;;;;;6.88;100.00;101747.63;5107185;28;19928;-76
2022/05/01 01:06:58;;;;;;;;;;;;;;;6.85;100.00;101748.09;5071272;28;19951;-76
2022/05/01 01:09:33;;;;;;;;;;;;;;;6.88;100.00;101757.66;5089304;28;19935;-75
2022/05/01 01:15:10;;;;;;;;;;;;;;;6.89;100.00;101752.00;5086933;28;19928;-76
2022/05/01 01:17:46;;;;;;;;;;;;;;;6.85;100.00;101749.97;5089010;28;19928;-77
2022/05/01 01:20:21;;;;;;;;;;;;;;;6.85;100.00;101752.66;5089184;28;19928;-76
2022/05/01 01:22:56;;;;;;;;;;;;;;;6.84;100.00;101748.34;5072538;28;20331;-76
2022/05/01 01:25:30;;;;;;;;;;;;;;;6.80;100.00;101753.38;5091254;28;19932;-76
2022/05/01 01:28:05;;;;;;;;;;;;;;;6.76;100.00;101750.28;5077183;28;19932;-77
2022/05/01 01:33:19;;;;;;;;;;;;;;;6.64;100.00;101763.75;5071368;28;19928;-76
2022/05/01 01:35:49;;;;;;;;;;;;;;;6.62;100.00;101762.34;5069299;28;19935;-76
2022/05/01 01:38:23;;;;;;;;;;;;;;;6.58;100.00;101769.25;5092950;28;19932;-76
2022/05/01 01:40:52;;;;;;;;;;;;;;;6.61;100.00;101769.59;5070034;28;20455;-76
2022/05/01 01:43:26;;;;;;;;;;;;;;;6.61;100.00;101769.59;5079304;28;19931;-76
2022/05/01 01:45:59;;;;;;;;;;;;;;;6.64;100.00;101761.06;5069806;28;19924;-77
2022/05/01 01:48:31;;;;;;;;;;;;;;;6.63;100.00;101764.00;5091218;28;19935;-76
2022/05/01 01:51:01;;;;;;;;;;;;;;;6.69;100.00;101762.25;5101089;28;19942;-76
2022/05/01 01:53:32;;;;;;;;;;;;;;;6.71;100.00;101758.28;5097136;28;19928;-76
2022/05/01 01:56:07;;;;;;;;;;;;;;;6.69;100.00;101748.72;5073783;28;20403;-77
2022/05/01 01:58:36;;;;;;;;;;;;;;;6.68;100.00;101760.59;5095859;28;19932;-75
2022/05/01 02:01:10;;;;;;;;;;;;;;;6.70;100.00;101758.47;5101038;28;19934;-76
2022/05/01 02:03:43;;;;;;;;;;;;;;;6.69;100.00;101754.13;5094890;28;19935;-77
2022/05/01 02:06:15;;;;;;;;;;;;;;;6.66;100.00;101747.31;5114750;27;19931;-77
2022/05/01 02:08:50;;;;;;;;;;;;;;;6.68;100.00;101736.25;5074045;28;19928;-77
2022/05/01 02:11:24;;;;;;;;;;;;;;;6.69;100.00;101743.31;5093445;28;19932;-76
2022/05/01 02:13:57;;;;;;;;;;;;;;;6.63;100.00;101745.06;5079578;28;19928;-76
2022/05/01 02:16:30;;;;;;;;;;;;;;;6.70;100.00;101747.66;5084472;28;19935;-76
2022/05/01 02:19:03;;;;;;;;;;;;;;;6.67;100.00;101750.81;5106599;28;20276;-76
2022/05/01 02:21:36;;;;;;;;;;;;;;;6.68;100.00;101753.28;5088647;28;19928;-76
2022/05/01 02:24:12;;;;;;;;;;;;;;;6.63;100.00;101761.28;5073852;28;19932;-76
2022/05/01 02:26:40;;;;;;;;;;;;;;;6.70;100.00;101764.72;5094055;28;20280;-76
2022/05/01 02:29:13;;;;;;;;;;;;;;;6.59;100.00;101758.19;5074850;28;19943;-76
2022/05/01 02:31:42;;;;;;;;;;;;;;;6.61;100.00;101752.56;5100084;28;20395;-76
2022/05/01 02:34:14;;;;;;;;;;;;;;;6.56;100.00;101755.09;5096607;28;19928;-76
2022/05/01 02:36:42;;;;;;;;;;;;;;;6.65;100.00;101761.88;5090452;28;20581;-76
2022/05/01 02:39:17;;;;;;;;;;;;;;;6.58;100.00;101755.72;5068623;28;19936;-77
2022/05/01 02:41:50;;;;;;;;;;;;;;;6.58;100.00;101759.25;5071205;28;19928;-75
2022/05/01 02:44:23;;;;;;;;;;;;;;;6.59;100.00;101752.78;5077564;28;20304;-77
2022/05/01 02:46:51;;;;;;;;;;;;;;;6.59;100.00;101758.19;5105357;28;19928;-76
2022/05/01 02:49:24;;;;;;;;;;;;;;;6.59;100.00;101760.09;5092755;28;19928;-76
2022/05/01 02:51:58;;;;;;;;;;;;;;;6.63;100.00;101764.81;5092273;28;19932;-76
2022/05/01 02:54:33;;;;;;;;;;;;;;;6.61;100.00;101758.78;5073018;28;19928;-76
2022/05/01 02:57:06;;;;;;;;;;;;;;;6.59;100.00;101762.78;5096176;28;19927;-76
2022/05/01 02:59:39;;;;;;;;;;;;;;;6.56;100.00;101758.66;5082521;28;19935;-75
2022/05/01 03:02:12;;;;;;;;;;;;;;;6.64;100.00;101763.75;5073991;28;19928;-77
2022/05/01 03:04:41;;;;;;;;;;;;;;;6.63;100.00;101761.28;5108439;27;19928;-76
2022/05/01 03:07:09;;;;;;;;;;;;;;;6.57;100.00;101764.88;5108096;27;19935;-77
2022/05/01 03:09:43;;;;;;;;;;;;;;;6.50;100.00;101764.13;5092196;28;20651;-77
2022/05/01 03:12:18;;;;;;;;;;;;;;;6.43;100.00;101765.03;5072607;28;20006;-76
2022/05/01 03:14:51;;;;;;;;;;;;;;;6.41;100.00;101756.31;5089096;28;19928;-77
2022/05/01 03:17:19;;;;;;;;;;;;;;;6.42;100.00;101760.69;5090690;28;19928;-76
2022/05/01 03:22:41;;;;;;;;;;;;;;;6.37;100.00;101763.25;5053187;28;19928;-76
2022/05/01 03:25:16;;;;;;;;;;;;;;;6.30;100.00;101754.38;5094482;28;19928;-77
2022/05/01 03:27:48;;;;;;;;;;;;;;;6.30;100.00;101747.09;5091415;28;19935;-76
2022/05/01 03:30:21;;;;;;;;;;;;;;;6.32;100.00;101749.56;5103903;28;19928;-75
2022/05/01 03:32:54;;;;;;;;;;;;;;;6.36;100.00;101741.84;5073199;28;19935;-77
2022/05/01 03:35:27;;;;;;;;;;;;;;;6.27;100.00;101747.53;5090903;28;19932;-76
2022/05/01 03:37:55;;;;;;;;;;;;;;;6.11;100.00;101748.94;5070277;28;19929;-77
2022/05/01 03:40:30;;;;;;;;;;;;;;;6.08;100.00;101751.28;5098203;28;19936;-76
2022/05/01 03:43:03;;;;;;;;;;;;;;;6.03;100.00;101753.81;5093301;28;19935;-76
2022/05/01 03:45:31;;;;;;;;;;;;;;;6.00;100.00;101754.28;5091196;28;20399;-76
2022/05/01 03:47:59;;;;;;;;;;;;;;;6.00;100.00;101748.88;5086828;28;19928;-76
2022/05/01 03:50:27;;;;;;;;;;;;;;;6.06;100.00;101751.50;5073025;28;20474;-77
2022/05/01 03:53:02;;;;;;;;;;;;;;;5.99;100.00;101747.22;5092004;28;20279;-75
2022/05/01 03:55:36;;;;;;;;;;;;;;;6.01;100.00;101740.53;5085568;28;19934;-76
2022/05/01 03:58:05;;;;;;;;;;;;;;;6.02;100.00;101744.06;5068147;28;19927;-76
2022/05/01 04:00:32;;;;;;;;;;;;;;;6.05;100.00;101749.84;5105461;28;19928;-76
2022/05/01 04:03:05;;;;;;;;;;;;;;;6.03;100.00;101753.81;5071387;28;19928;-76
2022/05/01 04:05:40;;;;;;;;;;;;;;;6.10;100.00;101751.88;5093204;28;20418;-76
2022/05/01 04:08:13;;;;;;;;;;;;;;;6.09;100.00;101752.91;5093057;28;19928;-76
2022/05/01 04:10:43;;;;;;;;;;;;;;;6.18;100.00;101750.75;5089116;28;19928;-77
2022/05/01 04:13:16;;;;;;;;;;;;;;;6.21;100.00;101751.13;5075179;28;19965;-77
2022/05/01 04:15:44;;;;;;;;;;;;;;;6.18;100.00;101751.59;5090090;28;19935;-76
2022/05/01 04:18:17;;;;;;;;;;;;;;;6.26;100.00;101761.28;5080283;28;19935;-76
2022/05/01 04:20:52;;;;;;;;;;;;;;;6.24;100.00;101764.22;5085516;28;20487;-76
2022/05/01 04:23:20;;;;;;;;;;;;;;;6.21;100.00;101759.22;5070547;28;20419;-75
2022/05/01 04:25:54;;;;;;;;;;;;;;;6.25;100.00;101755.03;5082447;28;20270;-76
2022/05/01 04:28:27;;;;;;;;;;;;;;;6.32;100.00;101756.84;5075495;28;19928;-77
2022/05/01 04:31:00;;;;;;;;;;;;;;;6.33;100.00;101745.00;5089850;28;19958;-76
2022/05/01 04:33:33;;;;;;;;;;;;;;;6.40;100.00;101754.66;5074834;28;19928;-75
2022/05/01 04:36:07;;;;;;;;;;;;;;;6.39;100.00;101755.72;5120101;27;20388;-76
2022/05/01 04:38:34;;;;;;;;;;;;;;;6.42;100.00;101746.31;5073843;28;19935;-76
2022/05/01 04:41:09;;;;;;;;;;;;;;;6.22;100.00;101760.91;5101649;27;19928;-76
2022/05/01 04:43:42;;;;;;;;;;;;;;;6.28;100.00;101762.72;5085967;28;19928;-76
2022/05/01 04:46:10;;;;;;;;;;;;;;;6.28;100.00;101751.06;5099053;27;19932;-76
2022/05/01 04:48:37;;;;;;;;;;;;;;;6.34;100.00;101760.16;5088101;28;19935;-77
2022/05/01 04:51:10;;;;;;;;;;;;;;;6.37;100.00;101762.41;5067093;28;19925;-76
2022/05/01 04:53:43;;;;;;;;;;;;;;;6.27;100.00;101765.63;5084838;28;19935;-76
2022/05/01 04:59:07;;;;;;;;;;;;;;;6.37;100.00;101760.53;5103734;28;19936;-76
2022/05/01 05:01:41;;;;;;;;;;;;;;;6.40;100.00;101761.97;5089625;28;19924;-76
2022/05/01 05:04:09;;;;;;;;;;;;;;;6.43;100.00;101765.03;5084158;28;19932;-76
2022/05/01 05:06:42;;;;;;;;;;;;;;;6.47;100.00;101768.94;5069904;28;19942;-75
2022/05/01 05:12:09;;;;;;;;;;;;;;;6.60;100.00;101783.34;5068436;28;19935;-76
2022/05/01 05:14:42;;;;;;;;;;;;;;;6.61;100.00;101785.00;5066513;28;19935;-75
2022/05/01 05:17:18;;;;;;;;;;;;;;;6.64;100.00;101789.97;5075206;28;19944;-76
2022/05/01 05:19:46;;;;;;;;;;;;;;;6.59;100.00;101776.31;5087030;28;19928;-77
2022/05/01 05:22:19;;;;;;;;;;;;;;;6.65;100.00;101775.41;5070083;28;19943;-77
2022/05/01 05:24:47;;;;;;;;;;;;;;;6.67;100.00;101778.72;5092960;28;19928;-75
2022/05/01 05:27:20;;;;;;;;;;;;;;;6.71;100.00;101781.78;5091196;28;19928;-76
2022/05/01 05:29:53;;;;;;;;;;;;;;;6.72;100.00;101781.53;5099006;28;19943;-76
2022/05/01 05:32:26;;;;;;;;;;;;;;;6.66;100.00;101787.88;5089877;28;20296;-76
2022/05/01 05:34:59;;;;;;;;;;;;;;;6.71;100.00;101793.44;5090853;28;19933;-75
2022/05/01 05:37:27;;;;;;;;;;;;;;;6.73;100.00;101785.91;5088174;28;19927;-77
2022/05/01 05:39:55;;;;;;;;;;;;;;;6.73;100.00;101787.81;5089477;28;19935;-76
2022/05/01 05:42:24;;;;;;;;;;;;;;;6.81;100.00;101790.19;5072847;28;20315;-76
2022/05/01 05:44:57;;;;;;;;;;;;;;;6.72;100.00;101786.13;5070126;28;19942;-77
2022/05/01 05:47:30;;;;;;;;;;;;;;;6.85;100.00;101793.25;5069138;28;19939;-78
2022/05/01 05:50:03;;;;;;;;;;;;;;;6.71;100.00;101798.84;5064211;28;19928;-77
2022/05/01 05:52:32;;;;;;;;;;;;;;;6.78;100.00;101798.75;5073890;28;19935;-77
2022/05/01 05:55:01;;;;;;;;;;;;;;;6.83;100.00;101795.38;5085131;28;19932;-76
2022/05/01 05:57:35;;;;;;;;;;;;;;;6.79;100.00;101801.25;5069256;28;19935;-76
2022/05/01 06:00:09;;;;;;;;;;;;;;;6.84;100.00;101803.28;5070717;28;19928;-78
2022/05/01 06:02:42;;;;;;;;;;;;;;;6.79;100.00;101803.97;5096161;28;19935;-77
2022/05/01 06:05:10;;;;;;;;;;;;;;;6.88;100.00;101798.25;5091640;28;20393;-76
2022/05/01 06:07:43;;;;;;;;;;;;;;;6.95;100.00;101805.19;5069111;28;20647;-76
2022/05/01 06:10:15;;;;;;;;;;;;;;;6.88;100.00;101799.06;5067913;28;19928;-76
2022/05/01 06:12:45;;;;;;;;;;;;;;;6.74;100.00;101808.38;5070157;28;19928;-76
2022/05/01 06:15:18;;;;;;;;;;;;;;;6.92;100.00;101808.38;5070899;28;19935;-76
2022/05/01 06:17:51;;;;;;;;;;;;;;;6.97;100.00;101805.81;5086879;28;19936;-76
2022/05/01 06:20:26;;;;;;;;;;;;;;;6.92;100.00;101797.53;5069823;28;19935;-77
2022/05/01 06:23:00;;;;;;;;;;;;;;;6.98;100.00;101791.22;5068613;28;19928;-76
2022/05/01 06:25:33;;;;;;;;;;;;;;;7.13;100.00;101793.50;5069729;28;19924;-76
2022/05/01 06:28:07;;;;;;;;;;;;;;;7.16;100.00;101794.94;5083987;28;19935;-76
2022/05/01 06:30:36;;;;;;;;;;;;;;;7.31;100.00;101791.81;5070487;28;20288;-75
2022/05/01 06:33:10;;;;;;;;;;;;;;;7.43;100.00;101792.69;5069027;28;19935;-77
2022/05/01 06:35:43;;;;;;;;;;;;;;;7.48;100.00;101800.94;5107384;27;19928;-75
2022/05/01 06:38:11;;;;;;;;;;;;;;;7.61;100.00;101801.78;5077676;28;19941;-77
2022/05/01 06:40:45;;;;;;;;;;;;;;;7.69;100.00;101804.16;5091797;28;19928;-76
2022/05/01 06:43:20;;;;;;;;;;;;;;;7.50;100.00;101811.56;5095190;28;19928;-75
2022/05/01 06:45:52;;;;;;;;;;;;;;;7.46;100.00;101811.19;5089032;28;19928;-76
2022/05/01 06:48:25;;;;;;;;;;;;;;;7.51;100.00;101810.47;5071134;28;19928;-75
2022/05/01 06:50:58;;;;;;;;;;;;;;;7.49;100.00;101804.47;5090732;28;19935;-76
2022/05/01 06:53:31;;;;;;;;;;;;;;;7.66;100.00;101808.19;5072368;28;19931;-76
2022/05/01 06:56:04;;;;;;;;;;;;;;;7.68;100.00;101802.53;5092969;28;19936;-75
2022/05/01 06:58:39;;;;;;;;;;;;;;;7.80;100.00;101813.38;5073805;28;19928;-75
2022/05/01 07:01:12;;;;;;;;;;;;;;;7.79;100.00;101817.16;5089121;28;20418;-75
2022/05/01 07:03:40;;;;;;;;;;;;;;;7.74;100.00;101811.59;5086952;28;19924;-75
2022/05/01 07:06:13;;;;;;;;;;;;;;;7.76;100.00;101810.31;5085192;28;20389;-77
2022/05/01 07:08:46;;;;;;;;;;;;;;;7.91;100.00;101799.03;5093508;28;19928;-75
2022/05/01 07:11:19;;;;;;;;;;;;;;;7.97;100.00;101803.50;5092768;28;19935;-76
2022/05/01 07:13:48;;;;;;;;;;;;;;;8.07;100.00;101797.50;5092112;28;19939;-75
2022/05/01 07:16:22;;;;;;;;;;;;;;;8.11;100.00;101795.16;5093664;28;19928;-76
2022/05/01 07:18:55;;;;;;;;;;;;;;;8.06;100.00;101798.53;5092928;28;19928;-75
2022/05/01 07:21:28;;;;;;;;;;;;;;;8.31;100.00;101798.31;5106919;27;19928;-77
2022/05/01 07:23:56;;;;;;;;;;;;;;;8.26;100.00;101800.06;5089355;28;19928;-75
2022/05/01 07:26:33;;;;;;;;;;;;;;;8.19;100.00;101800.22;5090852;28;19932;-76
2022/05/01 07:29:08;;;;;;;;;;;;;;;8.33;100.00;101803.50;5102665;28;19943;-75
2022/05/01 07:31:42;;;;;;;;;;;;;;;8.20;100.00;101809.97;5094035;28;19927;-77
2022/05/01 07:34:10;;;;;;;;;;;;;;;8.50;100.00;101818.00;5086888;28;19932;-76
2022/05/01 07:36:45;;;;;;;;;;;;;;;8.46;100.00;101818.72;5069752;28;19928;-76
2022/05/01 07:39:18;;;;;;;;;;;;;;;8.50;100.00;101817.19;5100719;27;19928;-76
2022/05/01 07:41:51;;;;;;;;;;;;;;;8.76;100.00;101813.13;5070415;28;19928;-75
2022/05/01 07:44:26;;;;;;;;;;;;;;;8.78;100.00;101810.19;5093717;28;19935;-76
2022/05/01 07:46:59;;;;;;;;;;;;;;;8.98;100.00;101809.78;5094147;28;19934;-76
2022/05/01 07:49:33;;;;;;;;;;;;;;;8.87;100.00;101816.06;5079197;28;19932;-80
2022/05/01 07:52:07;;;;;;;;;;;;;;;8.87;100.00;101811.47;5071777;28;19935;-76
2022/05/01 07:54:40;;;;;;;;;;;;;;;8.95;100.00;101812.94;5082960;28;19928;-77
2022/05/01 07:57:13;;;;;;;;;;;;;;;9.25;100.00;101811.91;5070016;28;19927;-76
2022/05/01 07:59:47;;;;;;;;;;;;;;;9.41;100.00;101802.97;5086369;28;19928;-75
2022/05/01 08:02:15;;;;;;;;;;;;;;;9.39;100.00;101807.84;5074914;28;19927;-75
2022/05/01 08:04:48;;;;;;;;;;;;;;;9.55;100.00;101802.66;5081637;28;19936;-76
2022/05/01 08:07:16;;;;;;;;;;;;;;;9.68;100.00;101810.50;5090915;28;19932;-76
2022/05/01 08:09:49;;;;;;;;;;;;;;;9.80;100.00;101813.16;5086039;28;20698;-76
2022/05/01 08:12:22;;;;;;;;;;;;;;;10.00;100.00;101815.38;5070233;28;20420;-75
2022/05/01 08:14:51;;;;;;;;;;;;;;;9.74;100.00;101803.28;5089888;28;19932;-76
2022/05/01 08:17:19;;;;;;;;;;;;;;;9.69;100.00;101807.56;5087143;28;19932;-77
2022/05/01 08:22:52;;;;;;;;;;;;;;;9.82;100.00;101811.03;5021106;28;19936;-74
2022/05/01 08:25:21;;;;;;;;;;;;;;;9.62;100.00;101815.00;5001492;28;19940;-76
2022/05/01 08:27:54;;;;;;;;;;;;;;;9.73;100.00;101810.59;5029763;28;19928;-75
2022/05/01 08:30:28;;;;;;;;;;;;;;;9.55;100.00;101814.34;5079526;28;19986;-77
2022/05/01 08:33:03;;;;;;;;;;;;;;;9.58;100.00;101808.41;5089694;28;19928;-75
2022/05/01 08:35:31;;;;;;;;;;;;;;;9.63;100.00;101810.44;5086293;28;19932;-76
2022/05/01 08:38:07;;;;;;;;;;;;;;;9.62;100.00;101812.28;5083881;28;19928;-76
2022/05/01 08:40:35;;;;;;;;;;;;;;;9.84;100.00;101809.69;5081445;28;19928;-76
2022/05/01 08:43:08;;;;;;;;;;;;;;;9.93;100.00;101806.53;5084945;28;19928;-77
2022/05/01 08:45:46;;;;;;;;;;;;;;;10.05;100.00;101812.72;5065556;28;19935;-76
2022/05/01 08:48:23;;;;;;;;;;;;;;;10.21;100.00;101798.28;5082861;28;19928;-77
2022/05/01 08:50:57;;;;;;;;;;;;;;;10.33;100.00;101797.34;5066062;28;19928;-78
2022/05/01 08:53:25;;;;;;;;;;;;;;;10.28;100.00;101792.66;5080182;28;20368;-78
2022/05/01 08:55:59;;;;;;;;;;;;;;;10.43;100.00;101791.28;5101654;28;19935;-78
2022/05/01 08:58:32;;;;;;;;;;;;;;;10.35;100.00;101787.88;5071128;28;20571;-77
2022/05/01 09:01:07;;;;;;;;;;;;;;;10.33;100.00;101798.19;5065629;28;20495;-78
2022/05/01 09:03:44;;;;;;;;;;;;;;;10.38;100.00;101797.44;5059259;28;19939;-78
2022/05/01 09:06:18;;;;;;;;;;;;;;;10.77;100.00;101785.69;5063219;28;19932;-78
2022/05/01 09:08:52;;;;;;;;;;;;;;;11.11;100.00;101785.56;5056685;28;19931;-79
2022/05/01 09:14:11;;;;;;;;;;;;;;;11.47;100.00;101777.72;5076419;28;20795;-79
2022/05/01 09:16:40;;;;;;;;;;;;;;;12.08;100.00;101791.03;5056480;28;20454;-78
2022/05/01 09:19:09;;;;;;;;;;;;;;;11.94;89.14;101777.03;5055265;28;19935;-78
2022/05/01 09:21:51;;;;;;;;;;;;;;;12.07;87.95;101775.78;5052414;28;19939;-77
2022/05/01 09:24:25;;;;;;;;;;;;;;;12.02;86.13;101781.19;5090246;28;19935;-77
2022/05/01 09:27:00;;;;;;;;;;;;;;;11.64;95.84;101780.31;5087851;28;19935;-79
2022/05/01 09:29:32;;;;;;;;;;;;;;;11.45;100.00;101783.44;5053044;28;20520;-78
2022/05/01 09:32:07;;;;;;;;;;;;;;;11.55;100.00;101788.97;5053000;28;19932;-80
2022/05/01 09:34:36;;;;;;;;;;;;;;;11.51;100.00;101784.31;5069349;28;19935;-78
2022/05/01 09:37:18;;;;;;;;;;;;;;;11.38;100.00;101791.00;5056174;28;19932;-79
2022/05/01 09:39:51;;;;;;;;;;;;;;;10.98;93.47;101793.03;5072747;28;19998;-78
2022/05/01 09:42:21;;;;;;;;;;;;;;;10.96;97.53;101795.19;5076403;28;19932;-78
2022/05/01 09:45:03;;;;;;;;;;;;;;;11.08;100.00;101788.78;5053953;28;19932;-78
2022/05/01 09:47:36;;;;;;;;;;;;;;;11.06;100.00;101789.88;5054234;28;19932;-78
2022/05/01 09:50:05;;;;;;;;;;;;;;;10.99;94.15;101791.97;5087876;28;19928;-79
2022/05/01 09:52:52;;;;;;;;;;;;;;;11.03;95.06;101798.56;5069030;28;19939;-79
2022/05/01 09:55:25;;;;;;;;;;;;;;;10.99;90.54;101791.97;5068593;28;19932;-78
2022/05/01 09:58:05;;;;;;;;;;;;;;;11.06;96.81;101786.31;5072815;28;19932;-79
2022/05/01 10:00:40;;;;;;;;;;;;;;;10.96;93.00;101772.59;5083563;28;19932;-78
2022/05/01 10:03:23;;;;;;;;;;;;;;;11.22;100.00;101777.22;5087481;28;19932;-79
2022/05/01 10:05:52;;;;;;;;;;;;;;;11.53;100.00;101782.97;5055463;28;19947;-78
2022/05/01 10:08:21;;;;;;;;;;;;;;;11.45;95.59;101779.88;5056284;28;19943;-79
2022/05/01 10:10:51;;;;;;;;;;;;;;;11.35;87.02;101777.88;5055859;28;19943;-80
2022/05/01 10:13:20;;;;;;;;;;;;;;;11.62;93.45;101780.56;5084499;28;19932;-79
2022/05/01 10:15:48;;;;;;;;;;;;;;;11.85;100.00;101778.59;5082362;28;19932;-79
2022/05/01 10:18:25;;;;;;;;;;;;;;;11.98;91.31;101775.44;5061177;28;19941;-80
2022/05/01 10:20:54;;;;;;;;;;;;;;;11.83;80.92;101773.38;5060083;28;19932;-79
2022/05/01 10:23:27;;;;;;;;;;;;;;;12.09;98.39;101779.03;5067147;28;19951;-78
2022/05/01 10:25:57;;;;;;;;;;;;;;;12.21;94.38;101770.66;5062568;28;19931;-78
2022/05/01 10:28:41;;;;;;;;;;;;;;;12.02;82.21;101776.53;5076897;28;19928;-78
2022/05/01 10:34:25;;;;;;;;;;;;;;;12.17;69.59;101761.38;5062887;28;19932;-79
2022/05/01 10:37:01;;;;;;;;;;;;;;;11.96;73.83;101765.84;5047161;28;19936;-79
2022/05/01 10:39:33;;;;;;;;;;;;;;;12.35;78.63;101755.44;5094514;28;19939;-79
2022/05/01 10:42:02;;;;;;;;;;;;;;;12.46;62.04;101755.53;5062406;28;19928;-78
2022/05/01 10:44:33;;;;;;;;;;;;;;;12.41;61.59;101746.22;5059982;28;19932;-78
2022/05/01 10:47:05;;;;;;;;;;;;;;;12.62;68.28;101753.66;5075173;28;20315;-78
2022/05/01 10:49:36;;;;;;;;;;;;;;;12.59;56.12;101736.72;5075958;28;19932;-78
2022/05/01 10:52:15;;;;;;;;;;;;;;;12.57;58.65;101735.34;5080041;28;20560;-79
2022/05/01 10:54:54;;;;;;;;;;;;;;;12.83;65.93;101733.53;5093727;28;19935;-79
2022/05/01 10:57:27;;;;;;;;;;;;;;;13.16;64.69;101733.31;5062554;28;20277;-78
2022/05/01 11:00:05;;;;;;;;;;;;;;;13.06;78.21;101734.94;5059863;28;19932;-79
2022/05/01 11:02:44;;;;;;;;;;;;;;;13.10;67.63;101737.94;5087741;28;19939;-78
2022/05/01 11:05:35;;;;;;;;;;;;;;;13.10;61.71;101736.03;5078711;28;20569;-79
2022/05/01 11:08:05;;;;;;;;;;;;;;;12.97;53.77;101735.72;5048840;28;20285;-78
2022/05/01 11:10:38;;;;;;;;;;;;;;;13.06;55.79;101737.69;5078269;28;19932;-79
2022/05/01 11:13:13;;;;;;;;;;;;;;;13.23;59.13;101734.69;5078623;28;19932;-78
2022/05/01 11:15:45;;;;;;;;;;;;;;;13.18;53.37;101718.28;5061489;28;19939;-78
2022/05/01 11:18:27;;;;;;;;;;;;;;;13.31;61.52;101729.75;5076188;28;19928;-78
2022/05/01 11:20:55;;;;;;;;;;;;;;;13.14;54.96;101719.91;5060346;28;19947;-79
2022/05/01 11:23:33;;;;;;;;;;;;;;;13.10;62.87;101724.28;5080570;28;19935;-79
2022/05/01 11:26:09;;;;;;;;;;;;;;;12.75;59.13;101720.38;5092291;28;19939;-78
2022/05/01 11:28:48;;;;;;;;;;;;;;;12.73;69.16;101728.84;5078335;28;19932;-80
2022/05/01 11:31:48;;;;;;;;;;;;;;;12.79;58.76;101726.13;5054943;28;20099;-79
2022/05/01 11:34:44;;;;;;;;;;;;;;;13.07;69.94;101724.81;5073910;28;19939;-79
2022/05/01 11:37:13;;;;;;;;;;;;;;;13.29;55.84;101724.56;5058890;28;19974;-78
2022/05/01 11:39:59;;;;;;;;;;;;;;;13.63;50.88;101725.97;5058017;28;19936;-79
2022/05/01 11:42:36;;;;;;;;;;;;;;;13.77;49.36;101724.31;5050786;28;20593;-79
2022/05/01 11:45:11;;;;;;;;;;;;;;;13.59;50.76;101729.25;5076551;28;19932;-78
2022/05/01 11:47:48;;;;;;;;;;;;;;;12.96;48.41;101726.72;5058363;28;19940;-80
2022/05/01 11:50:20;;;;;;;;;;;;;;;13.01;49.13;101728.63;5072707;28;21879;-78
2022/05/01 11:52:55;;;;;;;;;;;;;;;13.26;54.87;101725.94;5058945;28;19924;-78
2022/05/01 12:04:03;;;;;;;;;;;;;;;12.64;55.77;101725.00;5069779;28;19928;-78
2022/05/01 12:06:32;;;;;;;;;;;;;;;12.72;56.05;101726.41;5056303;28;20303;-78
2022/05/01 12:09:00;;;;;;;;;;;;;;;12.50;56.80;101723.88;5088236;28;19939;-78
2022/05/01 12:11:33;;;;;;;;;;;;;;;12.36;55.20;101724.34;5052446;28;19932;-76
2022/05/01 12:14:09;;;;;;;;;;;;;;;12.29;58.51;101733.84;5057132;28;19935;-77
2022/05/01 12:16:37;;;;;;;;;;;;;;;12.42;60.11;101728.72;5053329;28;19932;-78
2022/05/01 12:19:10;;;;;;;;;;;;;;;12.59;56.30;101714.03;5053486;28;19932;-79
2022/05/01 12:21:38;;;;;;;;;;;;;;;12.66;52.44;101714.59;5084993;28;19932;-78
2022/05/01 12:24:12;;;;;;;;;;;;;;;12.66;56.30;101717.34;5056665;28;20694;-76
2022/05/01 12:26:52;;;;;;;;;;;;;;;12.71;51.18;101714.63;5061390;28;19928;-79
2022/05/01 12:29:21;;;;;;;;;;;;;;;12.52;50.74;101710.75;5097014;28;19941;-79
2022/05/01 12:32:00;;;;;;;;;;;;;;;12.75;52.94;101704.00;5053797;28;19932;-79
2022/05/01 12:34:29;;;;;;;;;;;;;;;12.81;52.37;101705.63;5058688;28;19935;-83
2022/05/01 12:36:58;;;;;;;;;;;;;;;12.85;53.44;101706.75;5060255;28;19939;-80
2022/05/01 12:39:27;;;;;;;;;;;;;;;12.79;55.42;101705.09;5056558;28;19932;-81
2022/05/01 12:45:04;;;;;;;;;;;;;;;12.72;57.27;101696.34;5057694;28;19928;-81
2022/05/01 12:47:38;;;;;;;;;;;;;;;12.73;55.67;101696.09;5071722;28;19932;-79
2022/05/01 12:50:08;;;;;;;;;;;;;;;12.74;53.63;101694.97;5051408;28;19938;-80
2022/05/01 12:52:37;;;;;;;;;;;;;;;12.87;53.46;101696.38;5052285;28;21421;-81
2022/05/01 12:55:09;;;;;;;;;;;;;;;13.04;60.80;101698.06;5051638;28;19932;-80
2022/05/01 12:57:40;;;;;;;;;;;;;;;12.90;52.80;101698.56;5067307;28;19932;-80
2022/05/01 13:00:10;;;;;;;;;;;;;;;13.00;53.84;101686.84;5055247;28;20338;-82
2022/05/01 13:02:38;;;;;;;;;;;;;;;13.23;55.42;101687.38;5052146;28;19939;-80
2022/05/01 13:05:17;;;;;;;;;;;;;;;13.29;49.72;101691.78;5068494;28;19944;-79
2022/05/01 13:07:46;;;;;;;;;;;;;;;13.00;50.09;101686.03;5055831;28;19970;-80
2022/05/01 13:10:17;;;;;;;;;;;;;;;13.09;49.80;101695.31;5078282;28;20740;-79
2022/05/01 13:12:56;;;;;;;;;;;;;;;13.44;55.92;101691.78;5059292;28;19927;-81
2022/05/01 13:15:45;;;;;;;;;;;;;;;13.16;50.95;101689.56;5053650;28;21063;-81
2022/05/01 13:18:19;;;;;;;;;;;;;;;13.16;48.91;101681.38;5070895;28;19946;-81
2022/05/01 13:20:48;;;;;;;;;;;;;;;13.29;51.91;101689.03;5060583;28;19928;-80
2022/05/01 13:23:16;;;;;;;;;;;;;;;13.47;51.97;101684.97;5075207;28;20648;-80
2022/05/01 13:25:49;;;;;;;;;;;;;;;13.51;50.13;101685.25;5088614;28;20272;-80
2022/05/01 13:28:17;;;;;;;;;;;;;;;13.50;52.15;101686.31;5054434;28;20504;-80
2022/05/01 13:30:45;;;;;;;;;;;;;;;13.55;48.69;101678.94;5051714;28;19932;-80
2022/05/01 13:33:19;;;;;;;;;;;;;;;13.17;48.08;101680.28;5045115;28;19932;-80
2022/05/01 13:35:47;;;;;;;;;;;;;;;12.91;48.79;101674.78;5069250;28;19932;-80
2022/05/01 13:38:15;;;;;;;;;;;;;;;13.07;51.92;101681.91;5055039;28;19932;-80
2022/05/01 13:46:15;;;;;;;;;;;;;;;13.05;57.22;101673.19;5090553;27;19932;-80